sensor_id;sensor_type;location;lat;lon;timestamp;P1;durP1;ratioP1;P2;durP2;ratioP2
78581;SDS011;67878;46.242;5.974;2023-10-13T00:01:56;3.10;;;1.85;;
78581;SDS011;67878;46.242;5.974;2023-10-13T00:04:26;2.70;;;1.48;;
78581;SDS011;67878;46.242;5.974;2023-10-13T00:06:53;2.55;;;1.67;;
78581;SDS011;67878;46.242;5.974;2023-10-13T00:11:58;2.42;;;1.80;;
78581;SDS011;67878;46.242;5.974;2023-10-13T00:14:25;2.80;;;1.67;;
78581;SDS011;67878;46.242;5.974;2023-10-13T00:16:58;2.20;;;1.73;;
78581;SDS011;67878;46.242;5.974;2023-10-13T00:19:32;2.78;;;1.73;;
78581;SDS011;67878;46.242;5.974;2023-10-13T00:22:12;2.13;;;1.88;;
78581;SDS011;67878;46.242;5.974;2023-10-13T00:24:41;3.88;;;2.08;;
78581;SDS011;67878;46.242;5.974;2023-10-13T00:27:09;3.47;;;2.25;;
78581;SDS011;67878;46.242;5.974;2023-10-13T00:30:05;2.67;;;2.00;;
78581;SDS011;67878;46.242;5.974;2023-10-13T00:32:51;2.47;;;1.80;;
78581;SDS011;67878;46.242;5.974;2023-10-13T00:35:25;3.08;;;1.92;;
78581;SDS011;67878;46.242;5.974;2023-10-13T00:38:00;2.67;;;1.80;;
78581;SDS011;67878;46.242;5.974;2023-10-13T00:40:31;2.90;;;1.80;;
78581;SDS011;67878;46.242;5.974;2023-10-13T00:43:00;3.22;;;1.70;;
78581;SDS011;67878;46.242;5.974;2023-10-13T00:48:23;3.25;;;1.70;;
78581;SDS011;67878;46.242;5.974;2023-10-13T00:50:54;3.03;;;1.90;;
78581;SDS011;67878;46.242;5.974;2023-10-13T00:53:22;3.55;;;2.10;;
78581;SDS011;67878;46.242;5.974;2023-10-13T00:55:50;3.30;;;1.65;;
78581;SDS011;67878;46.242;5.974;2023-10-13T00:58:16;2.38;;;1.80;;
78581;SDS011;67878;46.242;5.974;2023-10-13T01:00:47;2.42;;;1.77;;
78581;SDS011;67878;46.242;5.974;2023-10-13T01:05:51;3.15;;;1.73;;
78581;SDS011;67878;46.242;5.974;2023-10-13T01:08:19;2.65;;;1.73;;
78581;SDS011;67878;46.242;5.974;2023-10-13T01:10:59;3.72;;;1.90;;
78581;SDS011;67878;46.242;5.974;2023-10-13T01:13:25;2.70;;;1.88;;
78581;SDS011;67878;46.242;5.974;2023-10-13T01:15:52;3.83;;;1.98;;
78581;SDS011;67878;46.242;5.974;2023-10-13T01:18:18;3.20;;;2.00;;
78581;SDS011;67878;46.242;5.974;2023-10-13T01:20:43;2.50;;;1.88;;
78581;SDS011;67878;46.242;5.974;2023-10-13T01:23:11;2.60;;;1.90;;
78581;SDS011;67878;46.242;5.974;2023-10-13T01:25:53;4.55;;;2.17;;
78581;SDS011;67878;46.242;5.974;2023-10-13T01:28:22;3.90;;;2.00;;
78581;SDS011;67878;46.242;5.974;2023-10-13T01:30:49;3.13;;;2.00;;
78581;SDS011;67878;46.242;5.974;2023-10-13T01:33:18;2.83;;;1.83;;
78581;SDS011;67878;46.242;5.974;2023-10-13T01:35:52;3.15;;;2.08;;
78581;SDS011;67878;46.242;5.974;2023-10-13T01:38:18;3.50;;;1.90;;
78581;SDS011;67878;46.242;5.974;2023-10-13T01:40:43;2.50;;;1.80;;
78581;SDS011;67878;46.242;5.974;2023-10-13T01:43:09;3.30;;;1.90;;
78581;SDS011;67878;46.242;5.974;2023-10-13T01:45:39;3.08;;;1.98;;
78581;SDS011;67878;46.242;5.974;2023-10-13T01:48:12;2.78;;;2.10;;
78581;SDS011;67878;46.242;5.974;2023-10-13T01:50:40;3.30;;;1.98;;
78581;SDS011;67878;46.242;5.974;2023-10-13T01:53:07;3.05;;;1.90;;
78581;SDS011;67878;46.242;5.974;2023-10-13T01:55:39;4.00;;;1.90;;
78581;SDS011;67878;46.242;5.974;2023-10-13T01:58:08;3.30;;;1.77;;
78581;SDS011;67878;46.242;5.974;2023-10-13T02:00:45;2.90;;;1.70;;
78581;SDS011;67878;46.242;5.974;2023-10-13T02:03:12;2.83;;;1.80;;
78581;SDS011;67878;46.242;5.974;2023-10-13T02:05:44;3.22;;;1.75;;
78581;SDS011;67878;46.242;5.974;2023-10-13T02:08:17;2.95;;;1.80;;
78581;SDS011;67878;46.242;5.974;2023-10-13T02:13:17;3.90;;;1.83;;
78581;SDS011;67878;46.242;5.974;2023-10-13T02:15:47;3.20;;;1.80;;
78581;SDS011;67878;46.242;5.974;2023-10-13T02:18:16;2.78;;;1.75;;
78581;SDS011;67878;46.242;5.974;2023-10-13T02:21:01;3.85;;;2.08;;
78581;SDS011;67878;46.242;5.974;2023-10-13T02:23:29;3.63;;;1.75;;
78581;SDS011;67878;46.242;5.974;2023-10-13T02:26:04;2.47;;;1.95;;
78581;SDS011;67878;46.242;5.974;2023-10-13T02:28:37;2.90;;;2.03;;
78581;SDS011;67878;46.242;5.974;2023-10-13T02:31:02;3.78;;;2.00;;
78581;SDS011;67878;46.242;5.974;2023-10-13T02:33:29;2.60;;;1.90;;
78581;SDS011;67878;46.242;5.974;2023-10-13T02:35:59;3.72;;;2.03;;
78581;SDS011;67878;46.242;5.974;2023-10-13T02:38:30;3.08;;;2.00;;
78581;SDS011;67878;46.242;5.974;2023-10-13T02:41:00;2.90;;;1.92;;
78581;SDS011;67878;46.242;5.974;2023-10-13T02:43:37;2.80;;;1.80;;
78581;SDS011;67878;46.242;5.974;2023-10-13T02:46:03;2.75;;;1.80;;
78581;SDS011;67878;46.242;5.974;2023-10-13T02:48:29;4.10;;;2.15;;
78581;SDS011;67878;46.242;5.974;2023-10-13T02:51:04;2.80;;;1.67;;
78581;SDS011;67878;46.242;5.974;2023-10-13T02:53:40;2.53;;;1.55;;
78581;SDS011;67878;46.242;5.974;2023-10-13T02:56:15;2.97;;;2.10;;
78581;SDS011;67878;46.242;5.974;2023-10-13T02:58:50;3.38;;;2.08;;
78581;SDS011;67878;46.242;5.974;2023-10-13T03:01:30;3.20;;;1.75;;
78581;SDS011;67878;46.242;5.974;2023-10-13T03:03:59;3.08;;;2.00;;
78581;SDS011;67878;46.242;5.974;2023-10-13T03:06:25;2.17;;;1.83;;
78581;SDS011;67878;46.242;5.974;2023-10-13T03:09:00;2.88;;;1.80;;
78581;SDS011;67878;46.242;5.974;2023-10-13T03:11:46;3.20;;;1.92;;
78581;SDS011;67878;46.242;5.974;2023-10-13T03:14:19;2.25;;;1.80;;
78581;SDS011;67878;46.242;5.974;2023-10-13T03:16:56;2.53;;;1.90;;
78581;SDS011;67878;46.242;5.974;2023-10-13T03:19:34;2.28;;;1.92;;
78581;SDS011;67878;46.242;5.974;2023-10-13T03:22:04;2.72;;;1.73;;
78581;SDS011;67878;46.242;5.974;2023-10-13T03:24:41;3.50;;;1.83;;
78581;SDS011;67878;46.242;5.974;2023-10-13T03:27:16;2.20;;;1.67;;
78581;SDS011;67878;46.242;5.974;2023-10-13T03:29:46;4.22;;;1.90;;
78581;SDS011;67878;46.242;5.974;2023-10-13T03:32:15;3.92;;;1.98;;
78581;SDS011;67878;46.242;5.974;2023-10-13T03:37:19;4.63;;;2.15;;
78581;SDS011;67878;46.242;5.974;2023-10-13T03:40:09;2.55;;;1.88;;
78581;SDS011;67878;46.242;5.974;2023-10-13T03:42:48;2.60;;;2.08;;
78581;SDS011;67878;46.242;5.974;2023-10-13T03:45:23;3.38;;;1.90;;
78581;SDS011;67878;46.242;5.974;2023-10-13T03:47:52;3.88;;;2.03;;
78581;SDS011;67878;46.242;5.974;2023-10-13T03:50:18;2.97;;;2.00;;
78581;SDS011;67878;46.242;5.974;2023-10-13T03:52:57;2.75;;;1.90;;
78581;SDS011;67878;46.242;5.974;2023-10-13T03:55:28;3.88;;;1.95;;
78581;SDS011;67878;46.242;5.974;2023-10-13T03:57:54;3.67;;;2.05;;
78581;SDS011;67878;46.242;5.974;2023-10-13T04:00:20;3.13;;;1.80;;
78581;SDS011;67878;46.242;5.974;2023-10-13T04:02:49;3.25;;;1.98;;
78581;SDS011;67878;46.242;5.974;2023-10-13T04:05:31;2.45;;;1.77;;
78581;SDS011;67878;46.242;5.974;2023-10-13T04:08:26;2.50;;;1.80;;
78581;SDS011;67878;46.242;5.974;2023-10-13T04:10:52;4.13;;;2.22;;
78581;SDS011;67878;46.242;5.974;2023-10-13T04:13:18;3.30;;;2.10;;
78581;SDS011;67878;46.242;5.974;2023-10-13T04:16:12;4.88;;;1.77;;
78581;SDS011;67878;46.242;5.974;2023-10-13T04:19:00;2.20;;;2.00;;
78581;SDS011;67878;46.242;5.974;2023-10-13T04:21:26;2.40;;;1.65;;
78581;SDS011;67878;46.242;5.974;2023-10-13T04:24:04;4.45;;;2.42;;
78581;SDS011;67878;46.242;5.974;2023-10-13T04:26:53;2.63;;;1.80;;
78581;SDS011;67878;46.242;5.974;2023-10-13T04:29:36;3.35;;;2.00;;
78581;SDS011;67878;46.242;5.974;2023-10-13T04:32:21;3.05;;;2.00;;
78581;SDS011;67878;46.242;5.974;2023-10-13T04:35:04;3.03;;;1.92;;
78581;SDS011;67878;46.242;5.974;2023-10-13T04:37:50;3.70;;;2.13;;
78581;SDS011;67878;46.242;5.974;2023-10-13T04:40:23;3.58;;;2.08;;
78581;SDS011;67878;46.242;5.974;2023-10-13T04:42:53;2.97;;;1.65;;
78581;SDS011;67878;46.242;5.974;2023-10-13T04:45:21;4.32;;;2.15;;
78581;SDS011;67878;46.242;5.974;2023-10-13T04:47:57;3.03;;;1.88;;
78581;SDS011;67878;46.242;5.974;2023-10-13T04:50:44;3.85;;;2.17;;
78581;SDS011;67878;46.242;5.974;2023-10-13T04:53:15;2.50;;;1.80;;
78581;SDS011;67878;46.242;5.974;2023-10-13T04:56:00;3.25;;;2.00;;
78581;SDS011;67878;46.242;5.974;2023-10-13T04:58:29;3.20;;;2.10;;
78581;SDS011;67878;46.242;5.974;2023-10-13T05:01:00;2.47;;;1.85;;
78581;SDS011;67878;46.242;5.974;2023-10-13T05:03:44;3.35;;;2.10;;
78581;SDS011;67878;46.242;5.974;2023-10-13T05:06:28;2.58;;;1.90;;
78581;SDS011;67878;46.242;5.974;2023-10-13T05:09:09;2.53;;;1.90;;
78581;SDS011;67878;46.242;5.974;2023-10-13T05:11:53;2.92;;;1.92;;
78581;SDS011;67878;46.242;5.974;2023-10-13T05:14:38;2.92;;;1.83;;
78581;SDS011;67878;46.242;5.974;2023-10-13T05:17:22;2.25;;;1.83;;
78581;SDS011;67878;46.242;5.974;2023-10-13T05:20:06;3.20;;;1.95;;
78581;SDS011;67878;46.242;5.974;2023-10-13T05:22:51;3.10;;;1.98;;
78581;SDS011;67878;46.242;5.974;2023-10-13T05:25:35;2.10;;;1.70;;
78581;SDS011;67878;46.242;5.974;2023-10-13T05:28:20;2.75;;;1.80;;
78581;SDS011;67878;46.242;5.974;2023-10-13T05:31:04;2.92;;;1.85;;
78581;SDS011;67878;46.242;5.974;2023-10-13T05:33:47;2.80;;;1.90;;
78581;SDS011;67878;46.242;5.974;2023-10-13T05:36:32;2.22;;;1.83;;
78581;SDS011;67878;46.242;5.974;2023-10-13T05:39:17;3.25;;;2.25;;
78581;SDS011;67878;46.242;5.974;2023-10-13T05:42:01;3.83;;;2.08;;
78581;SDS011;67878;46.242;5.974;2023-10-13T05:44:46;3.22;;;2.03;;
78581;SDS011;67878;46.242;5.974;2023-10-13T05:47:30;3.20;;;2.10;;
78581;SDS011;67878;46.242;5.974;2023-10-13T05:50:07;3.70;;;2.05;;
78581;SDS011;67878;46.242;5.974;2023-10-13T05:52:46;3.85;;;2.00;;
78581;SDS011;67878;46.242;5.974;2023-10-13T05:55:22;3.75;;;1.90;;
78581;SDS011;67878;46.242;5.974;2023-10-13T05:58:09;2.45;;;1.83;;
78581;SDS011;67878;46.242;5.974;2023-10-13T06:00:53;3.42;;;1.65;;
78581;SDS011;67878;46.242;5.974;2023-10-13T06:03:38;2.55;;;2.00;;
78581;SDS011;67878;46.242;5.974;2023-10-13T06:06:21;3.72;;;2.10;;
78581;SDS011;67878;46.242;5.974;2023-10-13T06:09:06;3.22;;;2.50;;
78581;SDS011;67878;46.242;5.974;2023-10-13T06:11:50;2.63;;;2.15;;
78581;SDS011;67878;46.242;5.974;2023-10-13T06:14:34;3.13;;;1.90;;
78581;SDS011;67878;46.242;5.974;2023-10-13T06:17:18;2.80;;;1.63;;
78581;SDS011;67878;46.242;5.974;2023-10-13T06:20:02;3.40;;;1.90;;
78581;SDS011;67878;46.242;5.974;2023-10-13T06:22:49;2.15;;;1.95;;
78581;SDS011;67878;46.242;5.974;2023-10-13T06:25:33;4.22;;;2.25;;
78581;SDS011;67878;46.242;5.974;2023-10-13T06:28:20;2.50;;;2.03;;
78581;SDS011;67878;46.242;5.974;2023-10-13T06:31:04;4.68;;;2.30;;
78581;SDS011;67878;46.242;5.974;2023-10-13T06:33:33;2.65;;;2.13;;
78581;SDS011;67878;46.242;5.974;2023-10-13T06:36:01;2.20;;;1.80;;
78581;SDS011;67878;46.242;5.974;2023-10-13T06:38:28;2.63;;;1.90;;
78581;SDS011;67878;46.242;5.974;2023-10-13T06:41:01;2.83;;;1.73;;
78581;SDS011;67878;46.242;5.974;2023-10-13T06:43:37;3.05;;;2.00;;
78581;SDS011;67878;46.242;5.974;2023-10-13T06:46:06;3.72;;;2.20;;
78581;SDS011;67878;46.242;5.974;2023-10-13T06:48:39;2.55;;;2.22;;
78581;SDS011;67878;46.242;5.974;2023-10-13T06:51:05;2.92;;;2.03;;
78581;SDS011;67878;46.242;5.974;2023-10-13T06:53:43;2.92;;;2.08;;
78581;SDS011;67878;46.242;5.974;2023-10-13T06:56:12;4.22;;;2.10;;
78581;SDS011;67878;46.242;5.974;2023-10-13T06:58:47;3.40;;;2.00;;
78581;SDS011;67878;46.242;5.974;2023-10-13T07:01:12;5.70;;;2.03;;
78581;SDS011;67878;46.242;5.974;2023-10-13T07:03:40;4.32;;;2.03;;
78581;SDS011;67878;46.242;5.974;2023-10-13T07:06:07;3.88;;;1.70;;
78581;SDS011;67878;46.242;5.974;2023-10-13T07:08:37;4.28;;;2.42;;
78581;SDS011;67878;46.242;5.974;2023-10-13T07:11:02;4.70;;;2.00;;
78581;SDS011;67878;46.242;5.974;2023-10-13T07:13:33;2.60;;;1.90;;
78581;SDS011;67878;46.242;5.974;2023-10-13T07:16:04;4.82;;;2.10;;
78581;SDS011;67878;46.242;5.974;2023-10-13T07:18:37;3.83;;;2.03;;
78581;SDS011;67878;46.242;5.974;2023-10-13T07:21:14;4.20;;;1.92;;
78581;SDS011;67878;46.242;5.974;2023-10-13T07:23:40;3.03;;;2.28;;
78581;SDS011;67878;46.242;5.974;2023-10-13T07:26:10;2.72;;;1.73;;
78581;SDS011;67878;46.242;5.974;2023-10-13T07:28:38;3.20;;;1.98;;
78581;SDS011;67878;46.242;5.974;2023-10-13T07:31:13;2.88;;;2.10;;
78581;SDS011;67878;46.242;5.974;2023-10-13T07:33:44;2.97;;;2.00;;
78581;SDS011;67878;46.242;5.974;2023-10-13T07:36:09;2.60;;;1.70;;
78581;SDS011;67878;46.242;5.974;2023-10-13T07:38:47;2.65;;;2.00;;
78581;SDS011;67878;46.242;5.974;2023-10-13T07:41:35;2.45;;;1.90;;
78581;SDS011;67878;46.242;5.974;2023-10-13T07:44:01;2.90;;;2.17;;
78581;SDS011;67878;46.242;5.974;2023-10-13T07:48:58;3.22;;;2.00;;
78581;SDS011;67878;46.242;5.974;2023-10-13T07:51:36;3.83;;;2.20;;
78581;SDS011;67878;46.242;5.974;2023-10-13T07:54:10;3.78;;;1.80;;
78581;SDS011;67878;46.242;5.974;2023-10-13T07:56:39;3.42;;;2.00;;
78581;SDS011;67878;46.242;5.974;2023-10-13T07:59:05;1.98;;;1.63;;
78581;SDS011;67878;46.242;5.974;2023-10-13T08:01:34;2.60;;;1.90;;
78581;SDS011;67878;46.242;5.974;2023-10-13T08:04:00;3.72;;;1.98;;
78581;SDS011;67878;46.242;5.974;2023-10-13T08:06:40;3.38;;;1.85;;
78581;SDS011;67878;46.242;5.974;2023-10-13T08:09:06;3.40;;;2.17;;
78581;SDS011;67878;46.242;5.974;2023-10-13T08:11:52;2.45;;;1.85;;
78581;SDS011;67878;46.242;5.974;2023-10-13T08:14:19;4.30;;;1.85;;
78581;SDS011;67878;46.242;5.974;2023-10-13T08:16:47;2.88;;;2.00;;
78581;SDS011;67878;46.242;5.974;2023-10-13T08:19:20;3.42;;;1.90;;
78581;SDS011;67878;46.242;5.974;2023-10-13T08:21:58;3.00;;;1.73;;
78581;SDS011;67878;46.242;5.974;2023-10-13T08:24:25;3.97;;;1.92;;
78581;SDS011;67878;46.242;5.974;2023-10-13T08:27:14;3.50;;;2.00;;
78581;SDS011;67878;46.242;5.974;2023-10-13T08:30:00;2.88;;;1.92;;
78581;SDS011;67878;46.242;5.974;2023-10-13T08:32:29;3.25;;;1.98;;
78581;SDS011;67878;46.242;5.974;2023-10-13T08:34:58;3.80;;;1.80;;
78581;SDS011;67878;46.242;5.974;2023-10-13T08:37:29;2.92;;;1.95;;
78581;SDS011;67878;46.242;5.974;2023-10-13T08:40:11;3.38;;;1.83;;
78581;SDS011;67878;46.242;5.974;2023-10-13T08:42:56;2.58;;;1.73;;
78581;SDS011;67878;46.242;5.974;2023-10-13T08:45:27;3.00;;;1.83;;
78581;SDS011;67878;46.242;5.974;2023-10-13T08:47:54;2.78;;;1.85;;
78581;SDS011;67878;46.242;5.974;2023-10-13T08:50:34;3.10;;;1.80;;
78581;SDS011;67878;46.242;5.974;2023-10-13T08:56:09;3.45;;;1.90;;
78581;SDS011;67878;46.242;5.974;2023-10-13T08:58:38;3.58;;;1.92;;
78581;SDS011;67878;46.242;5.974;2023-10-13T09:04:14;2.40;;;1.63;;
78581;SDS011;67878;46.242;5.974;2023-10-13T09:06:56;2.65;;;2.00;;
78581;SDS011;67878;46.242;5.974;2023-10-13T09:09:33;2.78;;;1.70;;
78581;SDS011;67878;46.242;5.974;2023-10-13T09:12:15;1.95;;;1.75;;
78581;SDS011;67878;46.242;5.974;2023-10-13T09:14:54;4.57;;;1.70;;
78581;SDS011;67878;46.242;5.974;2023-10-13T09:17:27;4.30;;;2.08;;
78581;SDS011;67878;46.242;5.974;2023-10-13T09:19:58;2.42;;;1.50;;
78581;SDS011;67878;46.242;5.974;2023-10-13T09:22:47;2.90;;;2.05;;
78581;SDS011;67878;46.242;5.974;2023-10-13T09:28:03;3.22;;;1.70;;
78581;SDS011;67878;46.242;5.974;2023-10-13T09:30:50;4.40;;;2.00;;
78581;SDS011;67878;46.242;5.974;2023-10-13T09:33:23;4.07;;;1.90;;
78581;SDS011;67878;46.242;5.974;2023-10-13T09:36:01;2.42;;;1.73;;
78581;SDS011;67878;46.242;5.974;2023-10-13T09:38:32;3.38;;;1.77;;
78581;SDS011;67878;46.242;5.974;2023-10-13T09:40:59;2.78;;;1.95;;
78581;SDS011;67878;46.242;5.974;2023-10-13T09:43:43;4.38;;;1.90;;
78581;SDS011;67878;46.242;5.974;2023-10-13T09:46:09;4.22;;;2.05;;
78581;SDS011;67878;46.242;5.974;2023-10-13T09:48:47;3.42;;;2.00;;
78581;SDS011;67878;46.242;5.974;2023-10-13T09:51:29;3.65;;;2.00;;
78581;SDS011;67878;46.242;5.974;2023-10-13T09:53:58;3.40;;;2.08;;
78581;SDS011;67878;46.242;5.974;2023-10-13T09:56:32;2.67;;;1.95;;
78581;SDS011;67878;46.242;5.974;2023-10-13T09:59:17;2.80;;;2.00;;
78581;SDS011;67878;46.242;5.974;2023-10-13T10:01:48;3.22;;;2.10;;
78581;SDS011;67878;46.242;5.974;2023-10-13T10:04:22;4.70;;;2.20;;
78581;SDS011;67878;46.242;5.974;2023-10-13T10:06:53;4.65;;;2.15;;
78581;SDS011;67878;46.242;5.974;2023-10-13T10:09:31;3.40;;;1.90;;
78581;SDS011;67878;46.242;5.974;2023-10-13T10:18:20;2.78;;;1.80;;
78581;SDS011;67878;46.242;5.974;2023-10-13T10:20:47;3.60;;;2.08;;
78581;SDS011;67878;46.242;5.974;2023-10-13T10:23:29;3.50;;;2.17;;
78581;SDS011;67878;46.242;5.974;2023-10-13T10:26:09;2.72;;;2.28;;
78581;SDS011;67878;46.242;5.974;2023-10-13T10:28:45;4.00;;;2.03;;
78581;SDS011;67878;46.242;5.974;2023-10-13T10:31:11;4.13;;;1.98;;
78581;SDS011;67878;46.242;5.974;2023-10-13T10:33:38;4.80;;;2.50;;
78581;SDS011;67878;46.242;5.974;2023-10-13T10:36:04;3.17;;;2.38;;
78581;SDS011;67878;46.242;5.974;2023-10-13T10:38:30;4.50;;;2.08;;
78581;SDS011;67878;46.242;5.974;2023-10-13T10:40:56;3.60;;;2.28;;
78581;SDS011;67878;46.242;5.974;2023-10-13T10:46:08;3.22;;;2.22;;
78581;SDS011;67878;46.242;5.974;2023-10-13T10:48:36;3.40;;;2.10;;
78581;SDS011;67878;46.242;5.974;2023-10-13T10:51:08;3.13;;;2.17;;
78581;SDS011;67878;46.242;5.974;2023-10-13T10:53:47;3.50;;;2.22;;
78581;SDS011;67878;46.242;5.974;2023-10-13T10:56:15;2.80;;;2.00;;
78581;SDS011;67878;46.242;5.974;2023-10-13T10:58:46;4.32;;;2.47;;
78581;SDS011;67878;46.242;5.974;2023-10-13T11:01:12;3.92;;;2.47;;
78581;SDS011;67878;46.242;5.974;2023-10-13T11:03:54;3.90;;;2.17;;
78581;SDS011;67878;46.242;5.974;2023-10-13T11:09:02;3.78;;;2.30;;
78581;SDS011;67878;46.242;5.974;2023-10-13T11:11:54;4.05;;;2.25;;
78581;SDS011;67878;46.242;5.974;2023-10-13T11:14:22;3.75;;;2.22;;
78581;SDS011;67878;46.242;5.974;2023-10-13T11:16:53;3.85;;;2.40;;
78581;SDS011;67878;46.242;5.974;2023-10-13T11:19:20;3.97;;;2.25;;
78581;SDS011;67878;46.242;5.974;2023-10-13T11:21:58;3.10;;;2.30;;
78581;SDS011;67878;46.242;5.974;2023-10-13T11:24:26;6.10;;;2.33;;
78581;SDS011;67878;46.242;5.974;2023-10-13T11:26:52;4.82;;;2.22;;
78581;SDS011;67878;46.242;5.974;2023-10-13T11:29:19;4.47;;;2.38;;
78581;SDS011;67878;46.242;5.974;2023-10-13T11:31:56;3.78;;;2.25;;
78581;SDS011;67878;46.242;5.974;2023-10-13T11:34:25;4.47;;;2.40;;
78581;SDS011;67878;46.242;5.974;2023-10-13T11:37:04;4.80;;;3.03;;
78581;SDS011;67878;46.242;5.974;2023-10-13T11:39:50;4.57;;;2.40;;
78581;SDS011;67878;46.242;5.974;2023-10-13T11:42:17;4.60;;;2.58;;
78581;SDS011;67878;46.242;5.974;2023-10-13T11:44:42;3.63;;;2.60;;
78581;SDS011;67878;46.242;5.974;2023-10-13T11:47:08;4.50;;;2.55;;
78581;SDS011;67878;46.242;5.974;2023-10-13T11:49:57;4.65;;;2.60;;
78581;SDS011;67878;46.242;5.974;2023-10-13T11:52:23;3.55;;;2.40;;
78581;SDS011;67878;46.242;5.974;2023-10-13T11:54:51;5.05;;;2.67;;
78581;SDS011;67878;46.242;5.974;2023-10-13T11:57:17;4.43;;;2.60;;
78581;SDS011;67878;46.242;5.974;2023-10-13T11:59:44;4.63;;;2.42;;
78581;SDS011;67878;46.242;5.974;2023-10-13T12:02:18;3.92;;;2.60;;
78581;SDS011;67878;46.242;5.974;2023-10-13T12:04:52;4.03;;;2.55;;
78581;SDS011;67878;46.242;5.974;2023-10-13T12:07:20;4.63;;;2.35;;
78581;SDS011;67878;46.242;5.974;2023-10-13T12:09:47;3.78;;;2.63;;
78581;SDS011;67878;46.242;5.974;2023-10-13T12:12:20;4.03;;;2.42;;
78581;SDS011;67878;46.242;5.974;2023-10-13T12:14:49;4.22;;;2.70;;
78581;SDS011;67878;46.242;5.974;2023-10-13T12:17:21;5.13;;;2.50;;
78581;SDS011;67878;46.242;5.974;2023-10-13T12:19:56;3.55;;;2.60;;
78581;SDS011;67878;46.242;5.974;2023-10-13T12:22:23;5.78;;;2.60;;
78581;SDS011;67878;46.242;5.974;2023-10-13T12:25:03;8.15;;;2.55;;
78581;SDS011;67878;46.242;5.974;2023-10-13T12:27:50;3.67;;;2.67;;
78581;SDS011;67878;46.242;5.974;2023-10-13T12:30:21;7.28;;;2.72;;
78581;SDS011;67878;46.242;5.974;2023-10-13T12:35:41;3.25;;;2.50;;
78581;SDS011;67878;46.242;5.974;2023-10-13T12:38:25;4.43;;;2.28;;
78581;SDS011;67878;46.242;5.974;2023-10-13T12:41:09;5.28;;;2.58;;
78581;SDS011;67878;46.242;5.974;2023-10-13T12:43:53;4.78;;;2.55;;
78581;SDS011;67878;46.242;5.974;2023-10-13T12:46:39;5.00;;;2.40;;
78581;SDS011;67878;46.242;5.974;2023-10-13T12:49:22;4.82;;;2.50;;
78581;SDS011;67878;46.242;5.974;2023-10-13T12:52:06;5.80;;;2.45;;
78581;SDS011;67878;46.242;5.974;2023-10-13T12:54:47;5.00;;;2.55;;
78581;SDS011;67878;46.242;5.974;2023-10-13T12:57:25;3.25;;;2.30;;
78581;SDS011;67878;46.242;5.974;2023-10-13T12:59:52;5.88;;;2.58;;
78581;SDS011;67878;46.242;5.974;2023-10-13T13:02:21;4.45;;;2.38;;
78581;SDS011;67878;46.242;5.974;2023-10-13T13:04:50;3.75;;;2.38;;
78581;SDS011;67878;46.242;5.974;2023-10-13T13:07:19;6.25;;;2.40;;
78581;SDS011;67878;46.242;5.974;2023-10-13T13:09:45;4.43;;;2.95;;
78581;SDS011;67878;46.242;5.974;2023-10-13T13:12:11;4.13;;;2.50;;
78581;SDS011;67878;46.242;5.974;2023-10-13T13:14:39;2.83;;;2.50;;
78581;SDS011;67878;46.242;5.974;2023-10-13T13:17:11;5.20;;;2.80;;
78581;SDS011;67878;46.242;5.974;2023-10-13T13:19:37;4.45;;;2.65;;
78581;SDS011;67878;46.242;5.974;2023-10-13T13:24:40;4.15;;;2.80;;
78581;SDS011;67878;46.242;5.974;2023-10-13T13:27:12;4.57;;;2.75;;
78581;SDS011;67878;46.242;5.974;2023-10-13T13:29:42;4.80;;;2.65;;
78581;SDS011;67878;46.242;5.974;2023-10-13T13:32:08;4.63;;;2.70;;
78581;SDS011;67878;46.242;5.974;2023-10-13T13:34:54;2.90;;;2.50;;
78581;SDS011;67878;46.242;5.974;2023-10-13T13:39:54;4.00;;;2.63;;
78581;SDS011;67878;46.242;5.974;2023-10-13T13:42:19;3.95;;;2.42;;
78581;SDS011;67878;46.242;5.974;2023-10-13T13:44:45;4.60;;;2.80;;
78581;SDS011;67878;46.242;5.974;2023-10-13T13:47:17;4.60;;;2.88;;
78581;SDS011;67878;46.242;5.974;2023-10-13T13:49:42;4.15;;;3.20;;
78581;SDS011;67878;46.242;5.974;2023-10-13T13:52:19;3.78;;;2.78;;
78581;SDS011;67878;46.242;5.974;2023-10-13T13:54:58;4.72;;;2.70;;
78581;SDS011;67878;46.242;5.974;2023-10-13T13:57:27;5.13;;;2.95;;
78581;SDS011;67878;46.242;5.974;2023-10-13T13:59:53;4.57;;;2.60;;
78581;SDS011;67878;46.242;5.974;2023-10-13T14:02:19;5.00;;;3.08;;
78581;SDS011;67878;46.242;5.974;2023-10-13T14:04:45;5.03;;;2.85;;
78581;SDS011;67878;46.242;5.974;2023-10-13T14:07:12;5.93;;;2.83;;
78581;SDS011;67878;46.242;5.974;2023-10-13T14:09:40;3.80;;;2.78;;
78581;SDS011;67878;46.242;5.974;2023-10-13T14:12:09;6.65;;;3.00;;
78581;SDS011;67878;46.242;5.974;2023-10-13T14:14:53;3.72;;;2.60;;
78581;SDS011;67878;46.242;5.974;2023-10-13T14:17:22;3.22;;;2.78;;
78581;SDS011;67878;46.242;5.974;2023-10-13T14:19:57;4.53;;;3.05;;
78581;SDS011;67878;46.242;5.974;2023-10-13T14:22:23;3.33;;;2.60;;
78581;SDS011;67878;46.242;5.974;2023-10-13T14:24:50;5.15;;;3.17;;
78581;SDS011;67878;46.242;5.974;2023-10-13T14:27:20;6.22;;;3.50;;
78581;SDS011;67878;46.242;5.974;2023-10-13T14:29:48;5.32;;;3.10;;
78581;SDS011;67878;46.242;5.974;2023-10-13T14:32:17;4.68;;;3.40;;
78581;SDS011;67878;46.242;5.974;2023-10-13T14:34:45;5.40;;;3.10;;
78581;SDS011;67878;46.242;5.974;2023-10-13T14:37:13;4.38;;;3.28;;
78581;SDS011;67878;46.242;5.974;2023-10-13T14:39:42;5.00;;;3.17;;
78581;SDS011;67878;46.242;5.974;2023-10-13T14:42:07;4.25;;;3.22;;
78581;SDS011;67878;46.242;5.974;2023-10-13T14:44:33;5.22;;;3.08;;
78581;SDS011;67878;46.242;5.974;2023-10-13T14:46:59;6.05;;;3.45;;
78581;SDS011;67878;46.242;5.974;2023-10-13T14:49:25;5.68;;;3.70;;
78581;SDS011;67878;46.242;5.974;2023-10-13T14:51:51;3.88;;;3.10;;
78581;SDS011;67878;46.242;5.974;2023-10-13T14:54:18;5.30;;;3.60;;
78581;SDS011;67878;46.242;5.974;2023-10-13T14:56:50;4.78;;;3.17;;
78581;SDS011;67878;46.242;5.974;2023-10-13T14:59:17;5.05;;;3.30;;
78581;SDS011;67878;46.242;5.974;2023-10-13T15:01:47;5.13;;;3.38;;
78581;SDS011;67878;46.242;5.974;2023-10-13T15:04:14;4.20;;;3.53;;
78581;SDS011;67878;46.242;5.974;2023-10-13T15:06:39;4.78;;;3.20;;
78581;SDS011;67878;46.242;5.974;2023-10-13T15:09:05;4.57;;;3.10;;
78581;SDS011;67878;46.242;5.974;2023-10-13T15:11:35;4.90;;;3.53;;
78581;SDS011;67878;46.242;5.974;2023-10-13T15:14:02;4.35;;;3.35;;
78581;SDS011;67878;46.242;5.974;2023-10-13T15:16:28;5.43;;;3.75;;
78581;SDS011;67878;46.242;5.974;2023-10-13T15:18:53;5.00;;;3.55;;
78581;SDS011;67878;46.242;5.974;2023-10-13T15:23:51;4.63;;;3.33;;
78581;SDS011;67878;46.242;5.974;2023-10-13T15:26:17;4.60;;;3.10;;
78581;SDS011;67878;46.242;5.974;2023-10-13T15:28:46;5.90;;;3.53;;
78581;SDS011;67878;46.242;5.974;2023-10-13T15:31:17;6.07;;;3.55;;
78581;SDS011;67878;46.242;5.974;2023-10-13T15:34:02;5.65;;;3.75;;
78581;SDS011;67878;46.242;5.974;2023-10-13T15:36:38;7.00;;;3.60;;
78581;SDS011;67878;46.242;5.974;2023-10-13T15:39:05;5.68;;;3.35;;
78581;SDS011;67878;46.242;5.974;2023-10-13T15:41:33;5.68;;;3.65;;
78581;SDS011;67878;46.242;5.974;2023-10-13T15:43:58;4.60;;;3.10;;
78581;SDS011;67878;46.242;5.974;2023-10-13T15:46:24;4.63;;;3.20;;
78581;SDS011;67878;46.242;5.974;2023-10-13T15:48:50;4.63;;;3.35;;
78581;SDS011;67878;46.242;5.974;2023-10-13T15:51:17;4.15;;;3.13;;
78581;SDS011;67878;46.242;5.974;2023-10-13T15:53:43;4.55;;;3.33;;
78581;SDS011;67878;46.242;5.974;2023-10-13T15:56:10;4.45;;;3.45;;
78581;SDS011;67878;46.242;5.974;2023-10-13T15:58:45;5.03;;;3.60;;
78581;SDS011;67878;46.242;5.974;2023-10-13T16:01:14;5.15;;;3.47;;
78581;SDS011;67878;46.242;5.974;2023-10-13T16:03:41;3.67;;;3.20;;
78581;SDS011;67878;46.242;5.974;2023-10-13T16:06:09;5.72;;;3.40;;
78581;SDS011;67878;46.242;5.974;2023-10-13T16:08:38;4.95;;;3.63;;
78581;SDS011;67878;46.242;5.974;2023-10-13T16:11:10;5.25;;;3.67;;